createdAt,value
2023-01-07T00:05:01.370Z,100076.22
2023-01-07T00:10:06.095Z,100128.25
2023-01-07T00:15:08.877Z,100131.84
2023-01-07T00:20:11.421Z,100066.56
2023-01-07T00:25:13.800Z,100109.88
2023-01-07T00:30:16.116Z,100091.03
2023-01-07T00:35:24.654Z,99991.06
2023-01-07T00:40:27.045Z,99968.63
2023-01-07T00:45:31.656Z,100125.88
2023-01-07T00:50:36.468Z,100179.06
2023-01-07T00:55:39.219Z,100098.31
2023-01-07T01:00:41.694Z,100163.13
2023-01-07T01:05:44.094Z,100154.59
2023-01-07T01:10:46.537Z,100099.19
2023-01-07T01:15:49.562Z,99948.50
2023-01-07T01:20:52.033Z,100085.06
2023-01-07T01:26:11.287Z,100136.28
2023-01-07T01:31:13.839Z,100096.34
2023-01-07T01:36:22.878Z,100156.72
2023-01-07T01:41:27.283Z,100162.38
2023-01-07T01:46:36.582Z,100141.00
2023-01-07T01:51:42.243Z,100208.88
2023-01-07T01:56:46.019Z,100189.78
2023-01-07T02:01:48.804Z,100229.38
2023-01-07T02:06:59.310Z,100078.28
2023-01-07T02:12:15.193Z,100246.44
2023-01-07T02:17:36.366Z,100176.81
2023-01-07T02:23:04.558Z,100254.34
2023-01-07T02:28:28.289Z,100264.22
2023-01-07T02:33:34.450Z,100276.38
2023-01-07T02:38:48.664Z,100281.31
2023-01-07T02:44:15.101Z,100174.38
2023-01-07T02:49:18.525Z,100221.78
2023-01-07T02:54:25.855Z,100225.84
2023-01-07T02:59:56.117Z,100248.31
2023-01-07T03:05:13.660Z,100308.13
2023-01-07T03:10:50.797Z,100112.19
2023-01-07T03:15:53.538Z,100321.59
2023-01-07T03:21:00.117Z,100254.88
2023-01-07T03:26:04.991Z,100162.06
2023-01-07T03:31:10.217Z,100293.94
2023-01-07T03:36:14.308Z,100331.72
2023-01-07T03:41:36.612Z,100295.28
2023-01-07T03:46:40.399Z,100345.66
2023-01-07T03:51:42.707Z,100284.94
2023-01-07T03:56:45.137Z,100345.44
2023-01-07T04:01:48.042Z,100355.13
2023-01-07T04:06:51.392Z,100326.78
2023-01-07T04:11:53.896Z,100144.09
2023-01-07T04:16:56.303Z,100281.28
2023-01-07T04:21:58.684Z,100264.47
2023-01-07T04:27:01.106Z,100295.47
2023-01-07T04:32:03.626Z,100299.06
2023-01-07T04:37:07.807Z,100332.16
2023-01-07T04:42:10.927Z,100323.16
2023-01-07T04:47:13.472Z,100083.16
2023-01-07T04:52:15.943Z,100284.91
2023-01-07T04:57:18.581Z,100364.72
2023-01-07T05:02:21.685Z,100363.16
2023-01-07T05:07:24.190Z,100355.28
2023-01-07T05:12:27.661Z,100374.59
2023-01-07T05:17:30.143Z,100418.94
2023-01-07T05:22:32.903Z,100373.47
2023-01-07T05:27:35.348Z,100377.06
2023-01-07T05:32:38.969Z,100274.31
2023-01-07T05:37:41.504Z,100394.34
2023-01-07T05:42:44.454Z,100422.28
2023-01-07T05:47:46.954Z,100429.25
2023-01-07T05:52:51.212Z,100380.50
2023-01-07T05:57:53.487Z,100425.56
2023-01-07T06:02:55.807Z,100403.09
2023-01-07T06:07:58.300Z,100381.66
2023-01-07T06:13:02.848Z,100366.81
2023-01-07T06:18:05.157Z,100284.00
2023-01-07T06:23:07.351Z,100390.88
2023-01-07T06:28:09.557Z,100523.22
2023-01-07T06:33:12.335Z,100348.28
2023-01-07T06:38:14.759Z,100270.00
2023-01-07T06:43:17.075Z,100479.81
2023-01-07T06:48:19.443Z,100450.28
2023-01-07T06:53:21.638Z,100453.63
2023-01-07T06:58:23.894Z,100452.47
2023-01-07T07:03:26.124Z,100525.88
2023-01-07T07:08:28.528Z,100408.09
2023-01-07T07:13:30.741Z,100458.53
2023-01-07T07:18:33.159Z,100559.88
2023-01-07T07:23:35.399Z,100554.66
2023-01-07T07:28:37.983Z,100525.41
2023-01-07T07:33:40.200Z,100440.78
2023-01-07T07:38:42.482Z,100531.03
2023-01-07T07:43:44.745Z,100555.22
2023-01-07T07:48:51.741Z,100487.81
2023-01-07T07:53:56.717Z,100571.63
2023-01-07T07:58:59.025Z,100477.00
2023-01-07T08:04:02.010Z,100492.81
2023-01-07T08:09:04.378Z,100534.88
2023-01-07T08:14:06.685Z,100496.03
2023-01-07T08:19:08.900Z,100493.78
2023-01-07T08:24:12.271Z,100501.44
2023-01-07T08:29:16.734Z,100372.75
2023-01-07T08:34:19.086Z,100588.78
2023-01-07T08:39:21.338Z,100533.94
2023-01-07T08:44:23.714Z,100584.16
2023-01-07T08:49:25.939Z,100531.28
2023-01-07T08:54:28.325Z,100574.75
2023-01-07T08:59:30.843Z,100534.72
2023-01-07T09:04:33.086Z,100563.28
2023-01-07T09:09:35.391Z,100372.53
2023-01-07T09:14:37.794Z,100619.13
2023-01-07T09:19:40.003Z,100574.09
2023-01-07T09:24:42.214Z,100594.34
2023-01-07T09:29:44.459Z,100629.03
2023-01-07T09:34:46.839Z,100545.31
2023-01-07T09:39:49.261Z,100620.44
2023-01-07T09:44:57.467Z,100632.78
2023-01-07T09:50:07.874Z,100589.78
2023-01-07T09:55:21.742Z,100636.13
2023-01-07T10:00:25.175Z,100641.06
2023-01-07T10:05:49.812Z,100590.81
2023-01-07T10:11:10.049Z,100640.97
2023-01-07T10:16:42.980Z,100646.16
2023-01-07T10:21:54.280Z,100560.41
2023-01-07T10:26:59.324Z,100632.75
2023-01-07T10:32:15.999Z,100552.19
2023-01-07T10:37:35.488Z,100633.59
2023-01-07T10:42:45.190Z,100487.75
2023-01-07T10:48:06.613Z,100649.78
2023-01-07T10:53:27.543Z,100640.50
2023-01-07T10:58:43.856Z,100598.19
2023-01-07T11:03:49.739Z,100608.94
2023-01-07T11:08:53.566Z,100553.72
2023-01-07T11:14:10.973Z,100644.81
2023-01-07T11:19:13.539Z,100580.22
2023-01-07T11:24:28.842Z,100655.31
2023-01-07T11:29:59.202Z,100658.44
2023-01-07T11:35:23.253Z,100570.09
2023-01-07T11:40:32.933Z,100598.41
2023-01-07T11:46:20.542Z,100650.56
2023-01-07T11:51:12.402Z,100657.06
2023-01-07T11:56:40.296Z,100566.69
2023-01-07T12:01:46.970Z,100564.22
2023-01-07T12:06:51.423Z,100661.84
2023-01-07T12:11:55.595Z,100565.19
2023-01-07T12:17:15.756Z,100557.78
2023-01-07T12:22:44.589Z,100679.06
2023-01-07T12:27:54.771Z,100636.78
2023-01-07T12:32:59.981Z,100689.91
2023-01-07T12:38:20.507Z,100683.09
2023-01-07T12:43:38.480Z,100686.69
2023-01-07T12:49:16.556Z,100694.81
2023-01-07T12:54:28.121Z,100694.81
2023-01-07T12:59:48.073Z,100707.06
2023-01-07T13:04:58.888Z,100678.84
2023-01-07T13:10:19.870Z,100669.94
2023-01-07T13:15:27.509Z,100714.53
2023-01-07T13:21:15.985Z,100597.72
2023-01-07T13:26:45.912Z,100715.47
2023-01-07T13:32:19.352Z,100722.72
2023-01-07T13:37:48.409Z,100667.13
2023-01-07T13:43:33.255Z,100730.94
2023-01-07T13:48:38.759Z,100516.75
2023-01-07T13:53:45.455Z,100730.09
2023-01-07T13:58:50.635Z,100687.59
2023-01-07T14:04:08.492Z,100497.22
2023-01-07T14:09:20.609Z,100554.91
2023-01-07T14:14:52.514Z,100255.47
2023-01-07T14:20:23.046Z,100683.63
2023-01-07T14:25:54.356Z,100741.25
2023-01-07T14:30:58.741Z,100447.72
2023-01-07T14:36:06.763Z,100408.75
2023-01-07T14:41:09.999Z,100735.44
2023-01-07T14:46:24.813Z,100734.59
2023-01-07T14:52:20.389Z,100738.03
2023-01-07T14:57:37.796Z,100745.97
2023-01-07T15:03:25.297Z,100604.16
2023-01-07T15:08:58.450Z,100417.91
2023-01-07T15:14:24.528Z,100762.78
2023-01-07T15:19:27.026Z,100634.16
2023-01-07T15:24:38.485Z,100720.19
2023-01-07T15:29:56.539Z,100688.84
2023-01-07T15:35:25.716Z,100763.25
2023-01-07T15:40:32.783Z,100670.22
2023-01-07T15:45:35.260Z,100696.75
2023-01-07T15:50:47.217Z,100761.22
2023-01-07T15:56:03.019Z,100696.06
2023-01-07T16:01:11.880Z,100706.47
2023-01-07T16:06:36.863Z,100750.44
2023-01-07T16:11:41.612Z,100674.13
2023-01-07T16:17:07.988Z,100758.16
2023-01-07T16:22:18.041Z,100579.75
2023-01-07T16:27:29.836Z,100581.34
2023-01-07T16:32:36.319Z,100661.22
2023-01-07T16:37:49.696Z,100588.59
2023-01-07T16:42:54.529Z,100600.84
2023-01-07T16:48:19.602Z,100597.91
2023-01-07T16:53:35.526Z,100536.88
2023-01-07T16:58:54.304Z,100643.47
2023-01-07T17:03:59.403Z,100744.63
2023-01-07T17:09:02.265Z,100732.22
2023-01-07T17:14:25.820Z,100643.69
2023-01-07T17:19:50.174Z,100790.19
2023-01-07T17:25:21.033Z,100715.56
2023-01-07T17:31:17.277Z,100780.06
2023-01-07T17:36:24.998Z,100763.81
2023-01-07T17:41:46.341Z,100623.16
2023-01-07T17:46:49.312Z,100739.69
2023-01-07T17:51:54.506Z,100745.13
2023-01-07T17:56:57.765Z,100648.22
2023-01-07T18:02:02.342Z,100626.78
2023-01-07T18:07:05.550Z,100672.34
2023-01-07T18:12:37.096Z,100711.75
2023-01-07T18:17:39.863Z,100419.91
2023-01-07T18:22:43.464Z,100542.56
2023-01-07T18:27:53.014Z,100797.69
2023-01-07T18:32:55.947Z,100609.25
2023-01-07T18:37:58.771Z,100538.06
2023-01-07T18:43:20.308Z,100247.19
2023-01-07T18:48:23.092Z,100655.66
2023-01-07T18:53:27.977Z,100461.09
2023-01-07T18:58:32.283Z,100605.41
2023-01-07T19:03:51.603Z,100775.59
2023-01-07T19:08:55.961Z,100417.66
2023-01-07T19:13:58.719Z,100746.72
2023-01-07T19:19:01.433Z,100328.09
2023-01-07T19:24:07.381Z,100552.25
2023-01-07T19:29:13.225Z,100589.16
2023-01-07T19:34:19.999Z,100505.41
2023-01-07T19:39:24.340Z,100347.00
2023-01-07T19:44:27.108Z,100538.75
2023-01-07T19:49:30.940Z,100584.28
2023-01-07T19:54:36.451Z,100344.06
2023-01-07T19:59:46.876Z,100360.91
2023-01-07T20:04:51.460Z,100765.03
2023-01-07T20:09:58.357Z,100546.81
2023-01-07T20:15:00.953Z,100409.97
2023-01-07T20:20:08.435Z,100568.69
2023-01-07T20:25:13.900Z,100632.03
2023-01-07T20:30:16.881Z,100518.47
2023-01-07T20:35:21.272Z,100759.16
2023-01-07T20:40:25.986Z,100846.25
2023-01-07T20:45:29.985Z,100673.50
2023-01-07T20:50:35.906Z,100726.00
2023-01-07T20:55:40.169Z,100669.38
2023-01-07T21:00:42.741Z,100444.56
2023-01-07T21:05:47.642Z,100428.16
2023-01-07T21:10:50.636Z,100365.38
2023-01-07T21:15:54.863Z,100621.84
2023-01-07T21:21:01.061Z,100355.22
2023-01-07T21:26:06.361Z,100122.59
2023-01-07T21:31:17.359Z,100688.53
2023-01-07T21:36:22.440Z,100698.03
2023-01-07T21:41:29.504Z,100564.59
2023-01-07T21:46:33.823Z,100591.69
2023-01-07T21:51:39.246Z,100601.59
2023-01-07T21:56:42.902Z,100333.25
2023-01-07T22:01:50.058Z,100438.72
2023-01-07T22:06:54.541Z,100614.81
2023-01-07T22:11:56.897Z,100781.06
2023-01-07T22:16:59.245Z,100770.22
2023-01-07T22:22:04.617Z,100321.72
2023-01-07T22:27:07.064Z,100303.31
2023-01-07T22:32:10.656Z,100465.03
2023-01-07T22:37:16.176Z,100545.25
2023-01-07T22:42:34.401Z,100531.50
2023-01-07T22:47:40.064Z,100723.28
2023-01-07T22:52:43.976Z,100647.56
2023-01-07T22:57:46.417Z,100736.16
2023-01-07T23:02:50.046Z,100531.19
2023-01-07T23:07:53.689Z,100714.91
2023-01-07T23:12:56.083Z,100533.69
2023-01-07T23:17:58.426Z,100299.41
2023-01-07T23:23:01.998Z,100272.91
2023-01-07T23:28:07.239Z,100462.09
2023-01-07T23:33:11.005Z,100655.22
2023-01-07T23:38:14.276Z,100509.34
2023-01-07T23:43:17.848Z,100413.25
2023-01-07T23:48:20.369Z,100424.31
2023-01-07T23:53:27.947Z,100496.75
2023-01-07T23:58:33.465Z,100695.53
